createdAt,value
2018-04-17T00:01:03.036Z,16.03
2018-04-17T00:03:32.175Z,14.93
2018-04-17T00:06:01.328Z,15.03
2018-04-17T00:08:30.476Z,15.70
2018-04-17T00:10:59.618Z,15.50
2018-04-17T00:13:28.764Z,15.07
2018-04-17T00:15:57.880Z,15.97
2018-04-17T00:18:27.112Z,16.30
2018-04-17T00:20:56.220Z,16.13
2018-04-17T00:23:25.334Z,17.57
2018-04-17T00:25:54.466Z,16.83
2018-04-17T00:28:23.581Z,17.37
2018-04-17T00:30:52.711Z,17.70
2018-04-17T00:33:21.912Z,17.77
2018-04-17T00:35:51.020Z,18.30
2018-04-17T00:38:20.159Z,17.67
2018-04-17T00:40:49.327Z,15.80
2018-04-17T00:43:19.371Z,17.00
2018-04-17T00:45:48.499Z,15.87
2018-04-17T00:48:17.654Z,15.80
2018-04-17T00:50:46.833Z,15.97
2018-04-17T00:53:22.132Z,15.50
2018-04-17T00:55:51.919Z,15.13
2018-04-17T00:58:21.055Z,16.23
2018-04-17T01:00:50.181Z,15.67
2018-04-17T01:03:19.327Z,14.63
2018-04-17T01:05:48.515Z,16.50
2018-04-17T01:08:17.657Z,16.40
2018-04-17T01:10:46.822Z,17.30
2018-04-17T01:13:15.970Z,16.80
2018-04-17T01:15:45.077Z,17.07
2018-04-17T01:18:14.305Z,17.97
2018-04-17T01:20:43.437Z,18.17
2018-04-17T01:23:12.560Z,19.13
2018-04-17T01:25:41.724Z,17.80
2018-04-17T01:28:10.856Z,18.07
2018-04-17T01:30:39.975Z,17.80
2018-04-17T01:33:09.174Z,18.07
2018-04-17T01:35:38.345Z,17.70
2018-04-17T01:38:07.480Z,16.73
2018-04-17T01:40:36.693Z,17.20
2018-04-17T01:43:05.823Z,17.00
2018-04-17T01:45:34.945Z,18.20
2018-04-17T01:48:04.117Z,19.30
2018-04-17T01:50:33.271Z,18.47
2018-04-17T01:53:02.407Z,19.00
2018-04-17T01:55:31.769Z,19.07
2018-04-17T01:58:00.883Z,19.00
2018-04-17T02:00:30.001Z,18.57
2018-04-17T02:02:59.165Z,18.57
2018-04-17T02:05:28.283Z,20.00
2018-04-17T02:07:57.488Z,19.87
2018-04-17T02:10:26.669Z,17.90
2018-04-17T02:12:55.785Z,17.93
2018-04-17T02:15:24.948Z,18.17
2018-04-17T02:17:54.096Z,18.57
2018-04-17T02:20:23.239Z,19.47
2018-04-17T02:22:52.377Z,20.00
2018-04-17T02:25:21.496Z,19.70
2018-04-17T02:27:50.657Z,20.20
2018-04-17T02:30:19.799Z,19.30
2018-04-17T02:32:48.937Z,20.03
2018-04-17T02:35:18.054Z,20.00
2018-04-17T02:37:47.195Z,19.77
2018-04-17T02:40:16.363Z,21.10
2018-04-17T02:42:45.511Z,19.80
2018-04-17T02:45:14.628Z,19.70
2018-04-17T02:47:43.853Z,19.00
2018-04-17T02:50:12.995Z,16.83
2018-04-17T02:52:42.161Z,17.03
2018-04-17T02:55:11.327Z,18.37
2018-04-17T02:57:40.891Z,18.33
2018-04-17T03:00:10.036Z,16.70
2018-04-17T03:02:39.217Z,16.40
2018-04-17T03:05:08.356Z,17.57
2018-04-17T03:07:37.496Z,17.37
2018-04-17T03:10:06.644Z,17.43
2018-04-17T03:12:35.752Z,16.90
2018-04-17T03:15:04.904Z,18.23
2018-04-17T03:17:34.045Z,16.53
2018-04-17T03:20:03.182Z,16.00
2018-04-17T03:22:32.332Z,16.70
2018-04-17T03:25:01.453Z,16.07
2018-04-17T03:27:30.570Z,16.83
2018-04-17T03:29:59.688Z,17.27
2018-04-17T03:32:28.814Z,17.43
2018-04-17T03:34:57.973Z,17.97
2018-04-17T03:37:27.101Z,19.37
2018-04-17T03:39:56.285Z,18.07
2018-04-17T03:42:25.489Z,17.60
2018-04-17T03:44:54.605Z,17.90
2018-04-17T03:47:23.716Z,17.37
2018-04-17T03:49:52.900Z,17.53
2018-04-17T03:52:22.036Z,17.37
2018-04-17T03:54:51.172Z,17.30
2018-04-17T03:57:20.318Z,18.10
2018-04-17T03:59:49.844Z,17.83
2018-04-17T04:02:19.080Z,18.40
2018-04-17T04:04:48.203Z,19.57
2018-04-17T04:07:17.321Z,20.27
2018-04-17T04:09:46.475Z,20.13
2018-04-17T04:12:15.602Z,20.03
2018-04-17T04:14:44.743Z,18.17
2018-04-17T04:17:19.717Z,17.37
2018-04-17T04:19:54.722Z,17.13
2018-04-17T04:22:29.720Z,19.63
2018-04-17T04:25:04.712Z,18.80
2018-04-17T04:27:33.903Z,18.23
2018-04-17T04:30:03.581Z,17.33
2018-04-17T04:32:32.697Z,19.40
2018-04-17T04:35:01.900Z,17.90
2018-04-17T04:37:31.060Z,17.47
2018-04-17T04:40:00.180Z,18.27
2018-04-17T04:42:29.358Z,17.70
2018-04-17T04:44:58.503Z,17.50
2018-04-17T04:47:27.632Z,16.97
2018-04-17T04:49:56.784Z,17.03
2018-04-17T04:52:25.901Z,17.93
2018-04-17T04:54:55.023Z,18.70
2018-04-17T04:57:24.164Z,17.10
2018-04-17T04:59:53.340Z,16.77
2018-04-17T05:02:22.508Z,17.63
2018-04-17T05:04:51.621Z,16.23
2018-04-17T05:07:20.759Z,17.67
2018-04-17T05:09:49.927Z,16.80
2018-04-17T05:12:19.052Z,17.60
2018-04-17T05:14:48.189Z,18.03
2018-04-17T05:17:17.344Z,16.73
2018-04-17T05:19:46.461Z,17.47
2018-04-17T05:22:15.624Z,16.50
2018-04-17T05:24:45.351Z,16.60
2018-04-17T05:27:14.500Z,16.23
2018-04-17T05:29:43.632Z,16.63
2018-04-17T05:32:12.780Z,15.80
2018-04-17T05:34:41.898Z,15.93
2018-04-17T05:37:11.036Z,17.83
2018-04-17T05:39:40.197Z,16.50
2018-04-17T05:42:09.314Z,16.13
2018-04-17T05:44:38.432Z,15.90
2018-04-17T05:47:07.580Z,14.60
2018-04-17T05:49:36.713Z,16.00
2018-04-17T05:52:05.870Z,15.77
2018-04-17T05:54:35.034Z,13.40
2018-04-17T05:57:04.172Z,13.40
2018-04-17T05:59:33.283Z,13.97
2018-04-17T06:02:02.444Z,12.70
2018-04-17T06:04:31.555Z,12.90
2018-04-17T06:07:00.681Z,12.83
2018-04-17T06:09:29.834Z,12.67
2018-04-17T06:11:58.970Z,11.90
2018-04-17T06:14:28.075Z,12.00
2018-04-17T06:16:57.263Z,9.63
2018-04-17T06:19:26.403Z,10.10
2018-04-17T06:21:55.539Z,10.03
2018-04-17T06:24:24.709Z,9.77
2018-04-17T06:26:54.545Z,9.70
2018-04-17T06:29:23.661Z,9.80
2018-04-17T06:31:52.812Z,9.90
2018-04-17T06:34:21.915Z,9.83
2018-04-17T06:36:51.036Z,11.80
2018-04-17T06:39:20.177Z,12.10
2018-04-17T06:41:49.364Z,13.90
2018-04-17T06:44:18.496Z,19.47
2018-04-17T06:46:47.640Z,22.83
2018-04-17T06:49:16.783Z,18.87
2018-04-17T06:51:45.904Z,21.27
2018-04-17T06:54:15.059Z,20.60
2018-04-17T06:56:44.235Z,21.57
2018-04-17T06:59:13.409Z,22.43
2018-04-17T07:01:42.546Z,20.43
2018-04-17T07:04:11.739Z,19.47
2018-04-17T07:06:40.883Z,18.70
2018-04-17T07:09:09.990Z,17.37
2018-04-17T07:11:39.161Z,17.13
2018-04-17T07:14:08.252Z,16.23
2018-04-17T07:16:37.365Z,15.30
2018-04-17T07:19:06.525Z,15.30
2018-04-17T07:21:35.657Z,14.27
2018-04-17T07:24:04.790Z,13.83
2018-04-17T07:26:33.956Z,13.27
2018-04-17T07:29:03.104Z,12.40
2018-04-17T07:31:32.295Z,13.20
2018-04-17T07:34:01.437Z,12.07
2018-04-17T07:36:30.563Z,11.50
2018-04-17T07:38:59.720Z,10.80
2018-04-17T07:41:28.848Z,11.30
2018-04-17T07:43:57.979Z,11.73
2018-04-17T07:46:27.125Z,11.47
2018-04-17T07:49:02.163Z,11.17
2018-04-17T07:51:31.337Z,11.27
2018-04-17T07:54:00.446Z,11.33
2018-04-17T07:56:29.576Z,10.80
2018-04-17T07:58:59.055Z,10.90
2018-04-17T08:01:28.188Z,11.07
2018-04-17T08:03:57.308Z,11.23
2018-04-17T08:06:26.448Z,10.60
2018-04-17T08:08:55.592Z,11.23
2018-04-17T08:11:24.703Z,11.07
2018-04-17T08:13:53.887Z,11.40
2018-04-17T08:16:23.000Z,10.70
2018-04-17T08:18:52.144Z,10.90
2018-04-17T08:21:21.288Z,10.17
2018-04-17T08:23:50.449Z,11.97
2018-04-17T08:26:19.579Z,10.70
2018-04-17T08:28:48.756Z,11.20
2018-04-17T08:31:18.102Z,11.27
2018-04-17T08:33:47.235Z,10.97
2018-04-17T08:36:16.384Z,11.07
2018-04-17T08:38:45.516Z,10.57
2018-04-17T08:41:14.637Z,10.23
2018-04-17T08:43:43.814Z,10.60
2018-04-17T08:46:12.937Z,11.37
2018-04-17T08:48:42.088Z,10.17
2018-04-17T08:51:11.257Z,10.60
2018-04-17T08:53:40.416Z,10.73
2018-04-17T08:56:09.553Z,10.63
2018-04-17T08:58:38.706Z,10.57
2018-04-17T09:01:07.813Z,9.90
2018-04-17T09:03:36.951Z,10.50
2018-04-17T09:06:06.119Z,9.40
2018-04-17T09:08:35.231Z,10.07
2018-04-17T09:11:04.383Z,10.23
2018-04-17T09:13:33.537Z,10.10
2018-04-17T09:16:02.676Z,10.63
2018-04-17T09:18:31.796Z,9.83
2018-04-17T09:21:00.967Z,9.77
2018-04-17T09:23:30.110Z,9.50
2018-04-17T09:25:59.242Z,9.63
2018-04-17T09:28:28.396Z,9.43
2018-04-17T09:30:57.528Z,10.37
2018-04-17T09:33:26.640Z,10.10
2018-04-17T09:35:55.789Z,9.50
2018-04-17T09:38:24.908Z,9.53
2018-04-17T09:40:54.028Z,9.10
2018-04-17T09:43:23.183Z,9.00
2018-04-17T09:45:52.324Z,10.40
2018-04-17T09:48:21.474Z,8.80
2018-04-17T09:50:50.596Z,9.80
2018-04-17T09:53:19.717Z,9.03
2018-04-17T09:55:48.825Z,8.20
2018-04-17T09:58:17.973Z,8.70
2018-04-17T10:00:52.904Z,8.70
2018-04-17T10:03:22.056Z,9.20
2018-04-17T10:05:51.183Z,9.37
2018-04-17T10:08:20.296Z,8.80
2018-04-17T10:10:49.463Z,8.70
2018-04-17T10:13:18.593Z,8.83
2018-04-17T10:15:47.799Z,9.03
2018-04-17T10:18:16.968Z,9.00
2018-04-17T10:20:46.090Z,8.90
2018-04-17T10:23:15.264Z,8.53
2018-04-17T10:25:44.408Z,8.90
2018-04-17T10:28:13.653Z,8.33
2018-04-17T10:30:42.811Z,8.67
2018-04-17T10:33:12.822Z,7.87
2018-04-17T10:35:41.963Z,7.43
2018-04-17T10:38:11.123Z,8.07
2018-04-17T10:40:40.266Z,7.70
2018-04-17T10:43:09.379Z,7.53
2018-04-17T10:45:38.518Z,7.40
2018-04-17T10:48:07.640Z,7.93
2018-04-17T10:50:36.807Z,7.80
2018-04-17T10:53:05.950Z,8.17
2018-04-17T10:55:35.077Z,8.40
2018-04-17T10:58:04.241Z,7.93
2018-04-17T11:00:33.372Z,8.53
2018-04-17T11:03:02.560Z,8.23
2018-04-17T11:05:31.709Z,8.00
2018-04-17T11:08:00.840Z,8.60
2018-04-17T11:10:30.026Z,7.23
2018-04-17T11:12:59.159Z,6.47
2018-04-17T11:15:28.269Z,6.90
2018-04-17T11:17:57.422Z,6.43
2018-04-17T11:20:26.557Z,6.20
2018-04-17T11:22:55.738Z,6.63
2018-04-17T11:25:24.917Z,6.27
2018-04-17T11:27:54.036Z,7.00
2018-04-17T11:30:23.160Z,6.40
2018-04-17T11:32:52.333Z,6.83
2018-04-17T11:35:21.465Z,6.60
2018-04-17T11:37:50.812Z,5.80
2018-04-17T11:40:19.981Z,6.47
2018-04-17T11:42:49.085Z,6.57
2018-04-17T11:45:18.210Z,6.30
2018-04-17T11:47:47.406Z,5.70
2018-04-17T11:50:16.559Z,5.87
2018-04-17T11:52:45.680Z,5.40
2018-04-17T11:55:14.879Z,6.00
2018-04-17T11:57:43.992Z,5.90
2018-04-17T12:00:13.136Z,5.77
2018-04-17T12:02:42.306Z,6.13
2018-04-17T12:05:11.502Z,6.00
2018-04-17T12:07:40.592Z,5.40
2018-04-17T12:10:09.755Z,5.70
2018-04-17T12:12:38.868Z,5.50
2018-04-17T12:15:08.010Z,5.70
2018-04-17T12:17:37.174Z,5.60
2018-04-17T12:20:06.300Z,5.47
2018-04-17T12:22:35.452Z,5.57
2018-04-17T12:25:04.613Z,4.67
2018-04-17T12:27:33.802Z,4.87
2018-04-17T12:30:02.949Z,5.30
2018-04-17T12:32:32.070Z,5.17
2018-04-17T12:35:01.238Z,6.30
2018-04-17T12:37:30.383Z,5.40
2018-04-17T12:39:59.602Z,4.73
2018-04-17T12:42:28.763Z,5.43
2018-04-17T12:44:57.897Z,5.30
2018-04-17T12:47:27.032Z,5.73
2018-04-17T12:49:56.164Z,5.57
2018-04-17T12:52:25.308Z,6.07
2018-04-17T12:54:54.420Z,5.30
2018-04-17T12:57:23.594Z,5.97
2018-04-17T12:59:52.712Z,6.17
2018-04-17T13:02:21.821Z,6.20
2018-04-17T13:04:50.980Z,6.40
2018-04-17T13:07:20.164Z,6.13
2018-04-17T13:09:49.280Z,6.73
2018-04-17T13:12:18.434Z,5.67
2018-04-17T13:14:47.552Z,6.87
2018-04-17T13:17:16.701Z,6.73
2018-04-17T13:19:45.847Z,6.90
2018-04-17T13:22:15.649Z,6.30
2018-04-17T13:24:44.764Z,6.47
2018-04-17T13:27:13.935Z,6.10
2018-04-17T13:29:43.075Z,5.60
2018-04-17T13:32:12.257Z,5.60
2018-04-17T13:34:41.460Z,5.40
2018-04-17T13:37:10.577Z,5.50
2018-04-17T13:39:39.943Z,4.93
2018-04-17T13:42:09.111Z,5.87
2018-04-17T13:44:38.260Z,5.13
2018-04-17T13:47:07.419Z,5.37
2018-04-17T13:49:36.553Z,5.13
2018-04-17T13:52:05.705Z,5.00
2018-04-17T13:54:35.280Z,5.23
2018-04-17T13:57:04.416Z,5.30
2018-04-17T13:59:33.528Z,5.40
2018-04-17T14:02:02.693Z,6.00
2018-04-17T14:04:31.837Z,5.40
2018-04-17T14:07:00.984Z,6.20
2018-04-17T14:09:30.121Z,6.50
2018-04-17T14:11:59.264Z,6.80
2018-04-17T14:14:28.432Z,6.80
2018-04-17T14:16:57.544Z,6.70
2018-04-17T14:19:26.695Z,6.60
2018-04-17T14:21:55.865Z,7.07
2018-04-17T14:24:24.971Z,7.93
2018-04-17T14:26:54.108Z,7.37
2018-04-17T14:29:23.360Z,6.70
2018-04-17T14:31:52.496Z,7.67
2018-04-17T14:34:21.663Z,7.17
2018-04-17T14:36:50.836Z,7.43
2018-04-17T14:39:19.944Z,7.60
2018-04-17T14:41:49.048Z,7.30
2018-04-17T14:44:18.233Z,6.90
2018-04-17T14:46:47.364Z,6.20
2018-04-17T14:49:16.531Z,6.40
2018-04-17T14:51:45.649Z,6.50
2018-04-17T14:54:14.754Z,6.17
2018-04-17T14:56:43.928Z,5.70
2018-04-17T14:59:13.040Z,5.67
2018-04-17T15:01:42.170Z,5.80
2018-04-17T15:04:11.291Z,5.33
2018-04-17T15:06:40.416Z,6.07
2018-04-17T15:09:09.587Z,4.83
2018-04-17T15:11:38.707Z,4.87
2018-04-17T15:14:07.819Z,5.33
2018-04-17T15:16:36.970Z,5.50
2018-04-17T15:19:06.095Z,5.40
2018-04-17T15:21:35.214Z,5.30
2018-04-17T15:24:04.364Z,5.70
2018-04-17T15:26:33.530Z,4.93
2018-04-17T15:29:02.668Z,5.30
2018-04-17T15:31:31.801Z,5.70
2018-04-17T15:34:01.050Z,5.70
2018-04-17T15:36:30.185Z,6.03
2018-04-17T15:38:59.324Z,5.80
2018-04-17T15:41:28.485Z,5.30
2018-04-17T15:43:57.646Z,5.60
2018-04-17T15:46:26.855Z,5.17
2018-04-17T15:48:55.996Z,5.53
2018-04-17T15:51:25.111Z,5.07
2018-04-17T15:53:54.260Z,5.23
2018-04-17T15:56:23.409Z,5.90
2018-04-17T15:58:52.596Z,6.37
2018-04-17T16:01:21.887Z,5.93
2018-04-17T16:03:51.000Z,5.93
2018-04-17T16:06:20.143Z,5.60
2018-04-17T16:08:49.286Z,5.77
2018-04-17T16:11:18.422Z,5.40
2018-04-17T16:13:47.533Z,5.80
2018-04-17T16:16:16.696Z,6.17
2018-04-17T16:18:45.884Z,5.83
2018-04-17T16:21:15.061Z,6.70
2018-04-17T16:23:44.200Z,6.90
2018-04-17T16:26:13.322Z,6.97
2018-04-17T16:28:42.460Z,6.97
2018-04-17T16:31:11.604Z,8.40
2018-04-17T16:33:40.728Z,7.70
2018-04-17T16:36:09.888Z,7.07
2018-04-17T16:38:39.044Z,7.60
2018-04-17T16:41:08.194Z,8.00
2018-04-17T16:43:37.328Z,8.10
2018-04-17T16:46:06.481Z,8.50
2018-04-17T16:48:36.177Z,7.63
2018-04-17T16:51:05.312Z,7.80
2018-04-17T16:53:34.456Z,8.30
2018-04-17T16:56:03.592Z,8.27
2018-04-17T16:58:32.708Z,8.70
2018-04-17T17:01:01.857Z,8.10
2018-04-17T17:03:31.000Z,7.70
2018-04-17T17:06:00.146Z,8.07
2018-04-17T17:08:29.328Z,7.70
2018-04-17T17:10:58.450Z,8.23
2018-04-17T17:13:27.558Z,9.00
2018-04-17T17:15:56.706Z,8.80
2018-04-17T17:18:25.846Z,8.90
2018-04-17T17:20:54.965Z,9.40
2018-04-17T17:23:24.144Z,8.80
2018-04-17T17:25:53.282Z,8.43
2018-04-17T17:28:22.422Z,9.57
2018-04-17T17:30:51.563Z,9.33
2018-04-17T17:33:20.755Z,9.00
2018-04-17T17:35:49.897Z,9.03
2018-04-17T17:38:19.131Z,9.00
2018-04-17T17:40:48.196Z,8.60
2018-04-17T17:43:17.341Z,9.33
2018-04-17T17:45:46.487Z,9.00
2018-04-17T17:48:15.612Z,9.23
2018-04-17T17:50:44.745Z,9.80
2018-04-17T17:53:13.862Z,8.83
2018-04-17T17:55:43.043Z,8.07
2018-04-17T17:58:12.170Z,8.40
2018-04-17T18:00:41.320Z,8.63
2018-04-17T18:03:10.436Z,9.00
2018-04-17T18:05:39.637Z,9.37
2018-04-17T18:08:08.816Z,9.40
2018-04-17T18:10:37.955Z,10.20
2018-04-17T18:13:07.089Z,8.80
2018-04-17T18:15:36.309Z,8.90
2018-04-17T18:18:05.437Z,9.20
2018-04-17T18:20:34.546Z,9.67
2018-04-17T18:23:03.724Z,9.20
2018-04-17T18:25:32.957Z,10.10
2018-04-17T18:28:02.139Z,10.60
2018-04-17T18:30:31.400Z,10.70
2018-04-17T18:33:00.544Z,10.50
2018-04-17T18:35:29.684Z,10.10
2018-04-17T18:37:58.841Z,11.70
2018-04-17T18:40:28.005Z,10.63
2018-04-17T18:42:57.119Z,10.63
2018-04-17T18:45:26.388Z,11.17
2018-04-17T18:47:55.549Z,11.40
2018-04-17T18:50:24.677Z,10.60
2018-04-17T18:52:54.262Z,10.87
2018-04-17T18:55:23.404Z,11.93
2018-04-17T18:57:52.540Z,12.77
2018-04-17T19:00:21.725Z,12.80
2018-04-17T19:02:50.865Z,12.20
2018-04-17T19:05:20.051Z,11.50
2018-04-17T19:07:49.217Z,12.80
2018-04-17T19:10:18.345Z,11.03
2018-04-17T19:12:47.469Z,11.23
2018-04-17T19:15:16.615Z,12.33
2018-04-17T19:17:45.755Z,14.07
2018-04-17T19:20:14.910Z,14.03
2018-04-17T19:22:44.064Z,13.63
2018-04-17T19:25:13.222Z,13.30
2018-04-17T19:27:42.482Z,13.03
2018-04-17T19:30:11.669Z,12.80
2018-04-17T19:32:40.839Z,12.73
2018-04-17T19:35:09.960Z,12.73
2018-04-17T19:37:39.119Z,12.13
2018-04-17T19:40:08.313Z,12.77
2018-04-17T19:42:37.505Z,13.60
2018-04-17T19:45:06.641Z,14.03
2018-04-17T19:47:35.811Z,13.50
2018-04-17T19:50:04.953Z,14.10
2018-04-17T19:52:34.089Z,13.90
2018-04-17T19:55:03.248Z,13.43
2018-04-17T19:57:32.381Z,13.30
2018-04-17T20:00:01.577Z,14.20
2018-04-17T20:02:30.721Z,13.37
2018-04-17T20:04:59.867Z,13.00
2018-04-17T20:07:29.524Z,12.30
2018-04-17T20:09:58.645Z,12.70
2018-04-17T20:12:27.795Z,13.37
2018-04-17T20:14:56.964Z,13.20
2018-04-17T20:17:26.089Z,13.20
2018-04-17T20:19:55.208Z,14.23
2018-04-17T20:22:24.355Z,15.37
2018-04-17T20:24:53.497Z,14.50
2018-04-17T20:27:22.623Z,14.50
2018-04-17T20:29:51.784Z,15.27
2018-04-17T20:32:20.921Z,14.20
2018-04-17T20:34:50.069Z,13.90
2018-04-17T20:37:19.181Z,14.13
2018-04-17T20:39:48.291Z,14.30
2018-04-17T20:42:17.526Z,14.50
2018-04-17T20:44:46.629Z,13.87
2018-04-17T20:47:15.795Z,13.97
2018-04-17T20:49:45.024Z,14.57
2018-04-17T20:52:14.172Z,15.03
2018-04-17T20:54:43.304Z,14.80
2018-04-17T20:57:12.493Z,14.40
2018-04-17T20:59:41.665Z,14.33
2018-04-17T21:02:10.804Z,13.57
2018-04-17T21:04:39.980Z,13.43
2018-04-17T21:07:09.120Z,13.47
2018-04-17T21:09:38.952Z,14.40
2018-04-17T21:12:08.121Z,15.10
2018-04-17T21:14:37.465Z,14.57
2018-04-17T21:17:06.650Z,14.70
2018-04-17T21:19:35.803Z,15.10
2018-04-17T21:22:04.963Z,15.30
2018-04-17T21:24:34.148Z,15.10
2018-04-17T21:27:03.286Z,14.40
2018-04-17T21:29:32.457Z,14.27
2018-04-17T21:32:01.570Z,13.87
2018-04-17T21:34:30.721Z,14.80
2018-04-17T21:36:59.912Z,13.80
2018-04-17T21:39:29.044Z,14.07
2018-04-17T21:41:58.307Z,13.73
2018-04-17T21:44:27.426Z,14.37
2018-04-17T21:46:56.569Z,13.80
2018-04-17T21:49:25.741Z,13.67
2018-04-17T21:51:54.892Z,16.00
2018-04-17T21:54:24.051Z,15.03
2018-04-17T21:56:53.208Z,14.93
2018-04-17T21:59:22.360Z,15.27
2018-04-17T22:01:52.174Z,16.63
2018-04-17T22:04:21.453Z,15.57
2018-04-17T22:06:50.604Z,15.70
2018-04-17T22:09:19.810Z,15.10
2018-04-17T22:11:48.945Z,17.50
2018-04-17T22:14:18.700Z,16.50
2018-04-17T22:16:47.892Z,16.30
2018-04-17T22:19:17.026Z,16.43
2018-04-17T22:21:46.152Z,17.07
2018-04-17T22:24:15.337Z,16.87
2018-04-17T22:26:44.465Z,16.00
2018-04-17T22:29:13.618Z,15.63
2018-04-17T22:31:42.744Z,16.00
2018-04-17T22:34:11.901Z,16.30
2018-04-17T22:36:41.020Z,16.60
2018-04-17T22:39:10.291Z,16.43
2018-04-17T22:41:39.416Z,15.77
2018-04-17T22:44:08.546Z,17.53
2018-04-17T22:46:37.709Z,16.30
2018-04-17T22:49:06.835Z,17.00
2018-04-17T22:51:36.019Z,16.80
2018-04-17T22:54:05.236Z,16.30
2018-04-17T22:56:34.405Z,16.80
2018-04-17T22:59:03.553Z,16.10
2018-04-17T23:01:32.712Z,16.20
2018-04-17T23:04:01.905Z,17.60
2018-04-17T23:06:31.042Z,16.87
2018-04-17T23:09:00.194Z,17.80
2018-04-17T23:11:29.328Z,18.10
2018-04-17T23:13:58.477Z,16.80
2018-04-17T23:16:28.803Z,18.40
2018-04-17T23:18:57.960Z,18.43
2018-04-17T23:21:27.757Z,18.10
2018-04-17T23:23:57.051Z,19.90
2018-04-17T23:26:26.187Z,19.87
2018-04-17T23:28:55.405Z,18.60
2018-04-17T23:31:24.621Z,21.40
2018-04-17T23:33:53.735Z,22.00
2018-04-17T23:36:22.905Z,23.47
2018-04-17T23:38:52.090Z,26.37
2018-04-17T23:41:21.244Z,27.77
2018-04-17T23:43:50.367Z,33.87
2018-04-17T23:46:19.532Z,50.47
2018-04-17T23:48:48.701Z,39.37
2018-04-17T23:51:17.971Z,42.40
2018-04-17T23:53:47.115Z,44.03
2018-04-17T23:56:16.254Z,46.50
2018-04-17T23:58:45.387Z,51.03
